Hebron, NE (68370)

8:24 PM CDT on July 22, 2014 (GMT -0500)
Hebron Municipal (KHJH) Elev 1467 ft | 40.15 °N, 97.59 °W | Change Station

Current weather conditions updated 9 minutes ago

Clear
Clear
86 °F
Feels Like 91 °F
N
7
Wind Variable Wind from NE

Tomorrow is forecast to be Much Cooler than today.

Today
High -- | Low -- °F
--% Chance of Precip.
Yesterday
High -- | Low -- °F
Precip. -- in
6:19 AM 8:53 PM
Waning Crescent, 14% visible
Pressure 30.09 in
Visibility 10.0 miles
Clouds Clear
Heat Index 91 °F
Dew Point 70 °F
Humidity 57%
Rainfall 0.00 in
Snow Depth Not available.
UV 0 out of 12
Pollen 6.00 out of 12
Air Quality Not available.
Flu Activity Not available.
METAR KHJH 230115Z AUTO 05006KT 10SM CLR 30/21 A3009 RMK AO2 T03030209

More Conditions Fewer Conditions

Pressure 30.09 in
Visibility 10.0 miles
Clouds Clear
Heat Index 91 °F
Dew Point 70 °F
Humidity 57%
Rainfall 0.00 in
Snow Depth Not available.
UV 0 out of 12
Pollen 6.00 out of 12
Air Quality Not available.
Flu Activity Not available.
METAR KHJH 230115Z AUTO 05006KT 10SM CLR 30/21 A3009 RMK AO2 T03030209

More Conditions Fewer Conditions

10-Day Weather Forecast

Almanac

Astronomy

Jul. 22, 2014 Rise Set
Actual Time 6:19 AM CDT 8:53 PM CDT
Civil Twilight 5:48 AM CDT 9:25 PM CDT
Nautical Twilight 5:08 AM CDT 10:03 PM CDT
Astronomical Twilight 4:25 AM CDT 10:47 PM CDT
Moon 2:53 AM CDT (7/22) 5:32 PM CDT (7/22)
Length of Visible Light 15h 36m
Length of Day
14h 34m
Tomorrow will be 1m 40s shorter.
Waning Crescent, 14% of the Moon is Illuminated
Today
Waning Crescent
Jul 26
New
Aug 3
First Quarter
Aug 10
Full
Aug 17
Last Quarter

Today's Extremes

State Highs State Lows

Community

WunderPhotos

Upload Photos

1,736,423 photos uploaded!

Nearby

Snow Depth

Station Depth Elevation
No new snow has been reported.

Earthquake Activity

City Distance Mag. Time & Date
No recent earthquake activity has been reported nearby.
Minimum magnitude displayed is 2.5.

Coastal Water Temperatures

Place Temperature
No Stations Reporting

Nearby Weather Stations

Station Location Temp. Heat Index Dew Point Humidity Wind Precip. Elev Updated Type
MesoWest SEDAN1 , Ong, NE 83 °F 81 °F - - North  at  - 0.00 in / hr 1685 ft 7:00 PM CDT MADIS
Crystal Springs Campground, Fairbury, NE 85.1 °F 92 °F 73 °F 68% NE  at  6.0 mph 0.00 in / hr 1424 ft 8:24 PM CDT Rapid Fire
2 S of Pawnee, Courtland, KS 85.8 °F 92 °F 72 °F 64% NNE  at  7.2 mph 0.00 in / hr 1565 ft 8:24 PM CDT Rapid Fire

Show More Stations Show Fewer Stations